SAZR/RSA METAR and TAF weather

Enter ICAO airport designator
Station Type Date Time Source
SAZR METAR 2021/09/12 10:12 UTC NOAA

SAZR 121012Z 36001KT 0900 FG NSC 09/09 Q1004


Station Type Date Time Source
SAZR Decoded METAR 2021/09/12 10:12 UTC NOAA

Santa Rosa Aerodrome, Argentina (SAZR) 36-34S 064-16W 191M
Sep 12, 2021 - 06:12 AM EDT / 2021.09.12 1012 UTC
Wind: from the N (360 degrees) at 1 MPH (1 KT):0
Visibility: less than 1 mile:0
Weather: fog
Temperature: 48 F (9 C)
Dew Point: 48 F (9 C)
Relative Humidity: 100%
Pressure (altimeter): 29.65 in. Hg (1004 hPa)
ob: SAZR 121012Z 36001KT 0900 FG NSC 09/09 Q1004
cycle: 10

Station Type Date Time Source
SAZR TAF 2021/09/12 18:24 UTC NOAA

TAF SAZR 121700Z 1218/1318 18012KT CAVOK TX22/1218Z TN09/1311Z
BECMG 1222/1300 15006KT 9999 SCT030
BECMG 1305/1308 18010KT SCT020 FEW040TCU BKN050
BECMG 1308/1310 18015KT BKN010 BKN050 PROB30 1309/1312 8000 SHRA BKN010 FEW030CB BKN050
BECMG 1315/1317 SCT030

Example: see airport list